Allanton, United Kingdom
Current Conditions -  °F | °C
As of 4:50 AM on Sunday 26 Oct 2014 (Local Time) from EGQM Reporting Station
Broken Clouds Broken Clouds  
Wind Chill: 55°   Ceiling: 4200
Heat Index: 55°   Visibility: 6mi
Dew Point: 45°   Wind: 28mph
Humidity: 67%   Direction: 220°SW
Pressure: 29.77"   Gusts: 40mph
Location:  55.78°N, 2.22°W
Report Text: EGQM 260350Z AUTO 22024G35KT 9999 BKN042/// 13/07 Q1008
Loading
Personal Weather Stations






























Interactive Weather Map
Tropical Storm Tracking
New forecast layout! Learn more

10-Day Weather Forecast

Advertisements
Track Severe Weather on mobile